International Virtual Aviation Organisation

Russian Federation and Kazakhstan MCD

 
USTR 270330Z 10002MPS 2800 -SN BR OVC011 M08/M10 Q1029 R21/450255 R12/450255 TEMPO 2100 -SN OVC007 OVC015 RMK QFE763/1017
QNH:(hPa/inHg/mmHg)1029 / 30.39 / 772
QFE:(hPa/inHg/mmHg)1015 / 29.97 / 761
Temperature-8
Dew Point-10
Visibility2100
WeatherLight Snow;Mist;Light Snow
Cloud CoverOVC (1100);
OVC (700);
OVC (1500);
Transition Height700 m./2700 ft.
Transition LevelFL40
SQUAWK